createdAt,value
2019-01-27T00:00:36.286Z,84.25
2019-01-27T00:03:38.650Z,83.96
2019-01-27T00:06:40.816Z,83.90
2019-01-27T00:09:45.333Z,83.64
2019-01-27T00:12:47.511Z,84.09
2019-01-27T00:15:51.003Z,83.21
2019-01-27T00:18:53.181Z,83.08
2019-01-27T00:21:55.275Z,83.59
2019-01-27T00:24:59.357Z,83.37
2019-01-27T00:28:02.758Z,83.40
2019-01-27T00:31:17.522Z,83.42
2019-01-27T00:34:19.578Z,83.11
2019-01-27T00:37:22.016Z,82.71
2019-01-27T00:40:24.622Z,82.92
2019-01-27T00:43:26.655Z,83.29
2019-01-27T00:46:31.361Z,83.57
2019-01-27T00:49:33.425Z,84.10
2019-01-27T00:52:35.432Z,83.89
2019-01-27T00:55:37.959Z,84.47
2019-01-27T00:58:40.273Z,84.12
2019-01-27T01:01:43.971Z,84.10
2019-01-27T01:04:46.015Z,83.86
2019-01-27T01:07:48.010Z,83.90
2019-01-27T01:10:50.111Z,84.42
2019-01-27T01:13:52.264Z,84.35
2019-01-27T01:16:54.414Z,84.43
2019-01-27T01:19:59.000Z,84.51
2019-01-27T01:23:01.168Z,84.24
2019-01-27T01:26:05.602Z,83.99
2019-01-27T01:29:07.720Z,84.28
2019-01-27T01:32:09.749Z,84.78
2019-01-27T01:35:20.760Z,85.27
2019-01-27T01:38:22.823Z,84.54
2019-01-27T01:41:25.198Z,84.64
2019-01-27T01:44:27.502Z,84.49
2019-01-27T01:47:32.654Z,84.89
2019-01-27T01:50:37.014Z,85.36
2019-01-27T01:53:39.573Z,84.77
2019-01-27T01:56:41.604Z,85.28
2019-01-27T01:59:43.935Z,84.85
2019-01-27T02:02:45.941Z,84.78
2019-01-27T02:05:48.090Z,85.32
2019-01-27T02:08:50.155Z,84.66
2019-01-27T02:11:54.816Z,84.86
2019-01-27T02:15:04.308Z,84.60
2019-01-27T02:18:06.327Z,84.76
2019-01-27T02:21:11.220Z,85.07
2019-01-27T02:24:13.492Z,84.44
2019-01-27T02:27:17.395Z,84.69
2019-01-27T02:30:19.748Z,84.70
2019-01-27T02:33:21.773Z,85.08
2019-01-27T02:36:23.809Z,84.82
2019-01-27T02:39:28.568Z,85.05
2019-01-27T02:42:30.611Z,84.74
2019-01-27T02:45:32.667Z,84.66
2019-01-27T02:48:37.223Z,84.36
2019-01-27T02:51:39.215Z,84.75
2019-01-27T02:54:41.410Z,84.39
2019-01-27T02:57:45.170Z,84.67
2019-01-27T03:00:48.464Z,85.00
2019-01-27T03:03:50.872Z,85.14
2019-01-27T03:07:17.858Z,85.20
2019-01-27T03:10:20.032Z,85.34
2019-01-27T03:13:22.061Z,85.46
2019-01-27T03:16:24.094Z,85.89
2019-01-27T03:19:27.348Z,85.58
2019-01-27T03:22:29.401Z,85.68
2019-01-27T03:25:31.731Z,85.42
2019-01-27T03:28:39.987Z,85.06
2019-01-27T03:31:41.997Z,84.98
2019-01-27T03:34:46.715Z,85.22
2019-01-27T03:37:51.570Z,84.45
2019-01-27T03:40:54.871Z,84.18
2019-01-27T03:44:02.240Z,84.13
2019-01-27T03:47:04.474Z,83.09
2019-01-27T03:50:09.415Z,83.76
2019-01-27T03:53:11.736Z,83.52
2019-01-27T03:56:13.906Z,83.71
2019-01-27T03:59:15.946Z,84.08
2019-01-27T04:02:17.970Z,84.06
2019-01-27T04:05:20.344Z,84.34
2019-01-27T04:08:22.375Z,84.70
2019-01-27T04:11:24.410Z,84.19
2019-01-27T04:14:26.779Z,84.08
2019-01-27T04:17:28.783Z,83.44
2019-01-27T04:20:33.590Z,83.22
2019-01-27T04:23:35.674Z,83.38
2019-01-27T04:26:37.737Z,83.31
2019-01-27T04:29:39.767Z,83.91
2019-01-27T04:32:41.777Z,83.44
2019-01-27T04:35:45.673Z,82.90
2019-01-27T04:38:47.701Z,83.03
2019-01-27T04:41:49.719Z,83.07
2019-01-27T04:44:53.350Z,83.02
2019-01-27T04:47:55.388Z,82.80
2019-01-27T04:50:57.399Z,82.70
2019-01-27T04:53:59.706Z,82.20
2019-01-27T04:57:02.802Z,81.87
2019-01-27T05:00:07.752Z,82.12
2019-01-27T05:03:26.958Z,81.58
2019-01-27T05:06:28.953Z,81.81
2019-01-27T05:09:30.979Z,83.24
2019-01-27T05:12:38.124Z,83.46
2019-01-27T05:15:40.236Z,82.75
2019-01-27T05:18:42.243Z,82.97
2019-01-27T05:21:44.262Z,84.02
2019-01-27T05:24:46.579Z,82.89
2019-01-27T05:27:48.650Z,83.38
2019-01-27T05:30:53.428Z,82.84
2019-01-27T05:33:55.678Z,82.64
2019-01-27T05:36:57.703Z,82.86
2019-01-27T05:39:59.720Z,82.83
2019-01-27T05:43:01.749Z,83.38
2019-01-27T05:46:03.979Z,83.47
2019-01-27T05:49:05.999Z,84.23
2019-01-27T05:52:08.078Z,84.41
2019-01-27T05:55:11.996Z,83.58
2019-01-27T05:58:14.074Z,83.58
2019-01-27T06:01:16.107Z,83.00
2019-01-27T06:04:18.319Z,83.27
2019-01-27T06:07:20.303Z,83.23
2019-01-27T06:10:22.324Z,82.80
2019-01-27T06:13:27.290Z,82.86
2019-01-27T06:16:29.313Z,83.41
2019-01-27T06:19:33.610Z,82.75
2019-01-27T06:22:35.619Z,82.41
2019-01-27T06:25:37.923Z,82.38
2019-01-27T06:28:39.933Z,81.21
2019-01-27T06:31:44.442Z,81.96
2019-01-27T06:34:46.857Z,82.22
2019-01-27T06:37:50.070Z,82.37
2019-01-27T06:40:52.130Z,82.87
2019-01-27T06:43:54.352Z,82.72
2019-01-27T06:46:56.417Z,83.01
2019-01-27T06:49:58.436Z,81.89
2019-01-27T06:53:00.467Z,82.31
2019-01-27T06:56:04.680Z,82.95
2019-01-27T06:59:29.560Z,82.31
2019-01-27T07:02:36.235Z,82.37
2019-01-27T07:05:49.494Z,83.22
2019-01-27T07:09:09.279Z,83.03
2019-01-27T07:12:45.727Z,83.04
2019-01-27T07:16:01.475Z,82.38
2019-01-27T07:19:24.000Z,81.98
2019-01-27T07:22:31.572Z,81.62
2019-01-27T07:25:52.343Z,82.29
2019-01-27T07:29:12.804Z,82.81
2019-01-27T07:32:34.755Z,82.68
2019-01-27T07:36:02.660Z,82.20
2019-01-27T07:39:24.825Z,82.27
2019-01-27T07:42:55.324Z,81.76
2019-01-27T07:46:03.155Z,81.87
2019-01-27T07:49:15.665Z,82.17
2019-01-27T07:52:35.730Z,82.01
2019-01-27T07:55:56.097Z,81.97
2019-01-27T07:59:06.001Z,82.93
2019-01-27T08:02:32.631Z,83.16
2019-01-27T08:05:43.330Z,82.98
2019-01-27T08:08:53.789Z,83.40
2019-01-27T08:12:21.948Z,82.17
2019-01-27T08:15:45.075Z,82.29
2019-01-27T08:18:59.539Z,82.94
2019-01-27T08:22:23.913Z,82.90
2019-01-27T08:25:34.169Z,82.10
2019-01-27T08:29:03.973Z,82.11
2019-01-27T08:32:31.174Z,82.03
2019-01-27T08:35:59.921Z,82.80
2019-01-27T08:39:20.459Z,82.89
2019-01-27T08:42:57.456Z,83.12
2019-01-27T08:46:17.724Z,82.69
2019-01-27T08:49:19.813Z,82.50
2019-01-27T08:52:25.043Z,82.08
2019-01-27T08:55:27.122Z,83.22
2019-01-27T08:58:32.296Z,82.67
2019-01-27T09:01:43.361Z,82.93
2019-01-27T09:04:59.392Z,83.52
2019-01-27T09:08:24.389Z,83.33
2019-01-27T09:11:38.604Z,83.57
2019-01-27T09:15:03.583Z,83.54
2019-01-27T09:18:23.820Z,83.85
2019-01-27T09:21:54.598Z,84.36
2019-01-27T09:25:34.643Z,84.07
2019-01-27T09:28:45.419Z,83.74
2019-01-27T09:32:15.041Z,84.12
2019-01-27T09:35:35.293Z,84.33
2019-01-27T09:38:55.786Z,83.72
2019-01-27T09:42:13.607Z,83.81
2019-01-27T09:45:27.730Z,84.39
2019-01-27T09:48:55.910Z,84.45
2019-01-27T09:52:14.893Z,83.72
2019-01-27T09:55:26.042Z,83.70
2019-01-27T09:58:56.725Z,84.85
2019-01-27T10:02:06.167Z,85.66
2019-01-27T10:05:24.067Z,85.30
2019-01-27T10:08:42.240Z,85.59
2019-01-27T10:12:01.888Z,85.22
2019-01-27T10:15:30.172Z,84.94
2019-01-27T10:18:54.699Z,85.32
2019-01-27T10:22:04.381Z,84.77
2019-01-27T10:25:43.435Z,84.78
2019-01-27T10:28:54.703Z,85.30
2019-01-27T10:32:08.877Z,85.38
2019-01-27T10:35:23.897Z,85.07
2019-01-27T10:38:44.519Z,84.79
2019-01-27T10:42:08.980Z,85.27
2019-01-27T10:45:33.366Z,85.43
2019-01-27T10:48:45.483Z,85.33
2019-01-27T10:52:01.300Z,85.49
2019-01-27T10:55:21.052Z,85.49
2019-01-27T10:58:38.858Z,85.03
2019-01-27T11:02:03.228Z,85.16
2019-01-27T11:05:25.956Z,85.71
2019-01-27T11:08:38.148Z,85.49
2019-01-27T11:12:05.520Z,84.10
2019-01-27T11:15:46.647Z,83.47
2019-01-27T11:19:06.839Z,83.89
2019-01-27T11:22:36.127Z,84.09
2019-01-27T11:26:00.744Z,83.93
2019-01-27T11:29:23.119Z,83.85
2019-01-27T11:32:44.204Z,83.90
2019-01-27T11:36:08.672Z,83.34
2019-01-27T11:39:37.451Z,82.71
2019-01-27T11:43:00.188Z,82.12
2019-01-27T11:46:21.962Z,82.19
2019-01-27T11:49:49.283Z,79.50
2019-01-27T11:53:03.047Z,78.93
2019-01-27T11:56:05.638Z,79.02
2019-01-27T11:59:08.903Z,79.30
2019-01-27T12:02:10.936Z,80.60
2019-01-27T12:05:13.491Z,78.94
2019-01-27T12:08:15.529Z,79.38
2019-01-27T12:11:20.401Z,78.49
2019-01-27T12:14:22.655Z,79.12
2019-01-27T12:17:24.783Z,79.37
2019-01-27T12:20:32.034Z,77.14
2019-01-27T12:23:36.878Z,77.92
2019-01-27T12:26:44.632Z,78.23
2019-01-27T12:29:46.661Z,77.64
2019-01-27T12:32:48.964Z,77.96
2019-01-27T12:35:52.467Z,78.40
2019-01-27T12:38:57.672Z,78.22
2019-01-27T12:41:59.674Z,78.98
2019-01-27T12:45:03.926Z,79.42
2019-01-27T12:48:07.043Z,77.72
2019-01-27T12:51:09.104Z,78.50
2019-01-27T12:54:11.359Z,77.91
2019-01-27T12:57:16.433Z,78.37
2019-01-27T13:00:26.390Z,78.18
2019-01-27T13:03:28.710Z,79.03
2019-01-27T13:06:30.703Z,76.90
2019-01-27T13:09:32.797Z,76.93
2019-01-27T13:12:35.005Z,77.10
2019-01-27T13:15:37.202Z,77.95
2019-01-27T13:18:39.273Z,76.44
2019-01-27T13:24:56.814Z,76.82
2019-01-27T13:27:58.816Z,78.49
2019-01-27T13:31:01.467Z,80.18
2019-01-27T13:34:03.879Z,77.65
2019-01-27T13:37:05.902Z,78.44
2019-01-27T13:40:15.177Z,77.29
2019-01-27T13:43:17.194Z,77.13
2019-01-27T13:46:19.420Z,75.75
2019-01-27T13:49:21.525Z,73.64
2019-01-27T13:52:23.528Z,73.89
2019-01-27T13:55:28.526Z,72.29
2019-01-27T13:58:30.521Z,72.12
2019-01-27T14:01:33.797Z,72.33
2019-01-27T14:04:35.805Z,71.56
2019-01-27T14:07:37.932Z,71.00
2019-01-27T14:10:39.949Z,69.82
2019-01-27T14:13:41.981Z,70.95
2019-01-27T14:16:43.973Z,70.07
2019-01-27T14:19:48.115Z,69.91
2019-01-27T14:22:53.527Z,70.15
2019-01-27T14:25:55.671Z,70.84
2019-01-27T14:28:57.844Z,71.29
2019-01-27T14:31:59.869Z,71.11
2019-01-27T14:35:06.523Z,72.59
2019-01-27T14:38:11.571Z,71.16
2019-01-27T14:41:13.587Z,70.44
2019-01-27T14:44:15.937Z,72.67
2019-01-27T14:47:18.012Z,72.56
2019-01-27T14:50:23.120Z,72.10
2019-01-27T14:53:26.368Z,70.60
2019-01-27T14:56:28.594Z,72.32
2019-01-27T14:59:32.815Z,72.65
2019-01-27T15:02:35.101Z,73.56
2019-01-27T15:05:38.572Z,72.53
2019-01-27T15:08:40.592Z,72.77
2019-01-27T15:11:45.145Z,72.25
2019-01-27T15:14:47.312Z,71.42
2019-01-27T15:17:49.349Z,74.10
2019-01-27T15:21:00.343Z,74.91
2019-01-27T15:24:02.368Z,76.10
2019-01-27T15:27:04.547Z,76.36
2019-01-27T15:30:11.565Z,76.83
2019-01-27T15:33:13.643Z,77.39
2019-01-27T15:36:15.862Z,77.86
2019-01-27T15:39:20.718Z,78.47
2019-01-27T15:42:22.751Z,78.96
2019-01-27T15:45:27.477Z,78.23
2019-01-27T15:48:36.882Z,78.59
2019-01-27T15:51:38.975Z,80.17
2019-01-27T15:54:41.353Z,80.26
2019-01-27T15:57:43.392Z,79.66
2019-01-27T16:00:45.682Z,79.52
2019-01-27T16:03:47.753Z,80.56
2019-01-27T16:06:49.828Z,80.78
2019-01-27T16:09:52.140Z,80.13
2019-01-27T16:12:54.165Z,79.72
2019-01-27T16:15:58.879Z,79.75
2019-01-27T16:19:07.016Z,80.36
2019-01-27T16:22:09.021Z,81.17
2019-01-27T16:25:13.690Z,79.79
2019-01-27T16:28:15.865Z,79.12
2019-01-27T16:31:35.850Z,78.88
2019-01-27T16:34:53.761Z,78.20
2019-01-27T16:37:55.935Z,75.76
2019-01-27T16:40:58.016Z,77.79
2019-01-27T16:44:01.522Z,75.65
2019-01-27T16:47:03.569Z,74.99
2019-01-27T16:50:08.616Z,76.12
2019-01-27T16:53:10.662Z,75.37
2019-01-27T16:56:17.665Z,75.89
2019-01-27T16:59:21.686Z,74.02
2019-01-27T17:02:23.722Z,73.23
2019-01-27T17:05:25.962Z,72.93
2019-01-27T17:08:27.969Z,74.26
2019-01-27T17:11:37.926Z,73.35
2019-01-27T17:14:40.276Z,74.12
2019-01-27T17:17:42.485Z,74.07
2019-01-27T17:20:45.709Z,73.42
2019-01-27T17:23:50.058Z,72.89
2019-01-27T17:26:54.722Z,74.52
2019-01-27T17:29:59.374Z,74.90
2019-01-27T17:33:03.554Z,74.48
2019-01-27T17:36:05.794Z,74.56
2019-01-27T17:39:09.577Z,73.89
2019-01-27T17:42:11.833Z,74.01
2019-01-27T17:45:14.985Z,74.38
2019-01-27T17:48:17.152Z,74.24
2019-01-27T17:51:19.180Z,74.91
2019-01-27T17:54:21.470Z,73.31
2019-01-27T17:57:34.952Z,74.16
2019-01-27T18:01:11.509Z,74.37
2019-01-27T18:04:31.798Z,74.97
2019-01-27T18:07:48.829Z,74.91
2019-01-27T18:11:10.441Z,73.92
2019-01-27T18:14:17.098Z,74.79
2019-01-27T18:17:19.158Z,73.46
2019-01-27T18:20:21.170Z,73.56
2019-01-27T18:23:23.266Z,72.67
2019-01-27T18:26:26.557Z,73.01
2019-01-27T18:29:28.938Z,72.59
2019-01-27T18:32:31.006Z,72.99
2019-01-27T18:35:34.807Z,72.89
2019-01-27T18:38:36.817Z,73.41
2019-01-27T18:41:40.365Z,72.61
2019-01-27T18:44:42.618Z,72.14
2019-01-27T18:47:44.658Z,71.83
2019-01-27T18:50:47.751Z,72.36
2019-01-27T18:54:06.568Z,71.54
2019-01-27T18:57:26.260Z,72.73
2019-01-27T19:00:35.560Z,72.58
2019-01-27T19:03:59.923Z,73.73
2019-01-27T19:07:20.862Z,74.05
2019-01-27T19:10:42.336Z,73.79
2019-01-27T19:14:05.630Z,74.26
2019-01-27T19:17:35.222Z,74.13
2019-01-27T19:21:06.287Z,74.99
2019-01-27T19:24:29.575Z,75.72
2019-01-27T19:27:58.994Z,74.90
2019-01-27T19:31:10.478Z,74.74
2019-01-27T19:34:37.246Z,75.23
2019-01-27T19:37:55.398Z,74.66
2019-01-27T19:41:11.553Z,75.06
2019-01-27T19:44:23.886Z,74.00
2019-01-27T19:47:35.161Z,74.01
2019-01-27T19:50:44.727Z,73.10
2019-01-27T19:54:06.393Z,73.58
2019-01-27T19:57:21.376Z,75.27
2019-01-27T20:00:46.466Z,75.99
2019-01-27T20:04:10.963Z,74.85
2019-01-27T20:07:31.293Z,73.88
2019-01-27T20:10:59.938Z,73.96
2019-01-27T20:14:27.773Z,74.29
2019-01-27T20:17:49.408Z,73.17
2019-01-27T20:21:03.717Z,72.08
2019-01-27T20:24:34.970Z,72.61
2019-01-27T20:27:51.711Z,73.69
2019-01-27T20:31:22.044Z,72.75
2019-01-27T20:34:52.793Z,73.12
2019-01-27T20:38:13.133Z,74.00
2019-01-27T20:41:43.836Z,75.22
2019-01-27T20:44:55.108Z,74.46
2019-01-27T20:48:19.749Z,75.95
2019-01-27T20:51:38.595Z,75.85
2019-01-27T20:54:51.078Z,76.67
2019-01-27T20:58:00.997Z,77.15
2019-01-27T21:01:24.559Z,77.67
2019-01-27T21:04:45.107Z,77.62
2019-01-27T21:08:05.513Z,77.47
2019-01-27T21:11:36.259Z,77.59
2019-01-27T21:15:03.711Z,78.29
2019-01-27T21:18:28.344Z,78.72
2019-01-27T21:21:33.355Z,79.21
2019-01-27T21:24:35.771Z,79.92
2019-01-27T21:27:37.799Z,79.92
2019-01-27T21:30:39.919Z,79.80
2019-01-27T21:33:43.163Z,79.04
2019-01-27T21:36:45.234Z,79.45
2019-01-27T21:39:47.262Z,80.11
2019-01-27T21:42:54.351Z,79.67
2019-01-27T21:45:58.004Z,79.83
2019-01-27T21:49:03.062Z,80.42
2019-01-27T21:52:05.158Z,81.43
2019-01-27T21:55:07.471Z,82.11
2019-01-27T21:58:09.542Z,81.71
2019-01-27T22:01:11.732Z,82.06
2019-01-27T22:04:14.939Z,81.77
2019-01-27T22:07:16.978Z,82.10
2019-01-27T22:10:20.498Z,81.92
2019-01-27T22:13:22.541Z,81.63
2019-01-27T22:16:25.007Z,81.77
2019-01-27T22:19:27.321Z,81.71
2019-01-27T22:22:29.542Z,82.46
2019-01-27T22:25:31.775Z,81.70
2019-01-27T22:28:34.047Z,81.74
2019-01-27T22:31:36.153Z,81.87
2019-01-27T22:34:43.170Z,82.20
2019-01-27T22:37:48.356Z,82.56
2019-01-27T22:40:50.503Z,81.90
2019-01-27T22:43:54.487Z,82.24
2019-01-27T22:46:56.507Z,82.97
2019-01-27T22:49:58.523Z,83.44
2019-01-27T22:53:03.309Z,82.91
2019-01-27T22:56:05.594Z,82.64
2019-01-27T22:59:07.790Z,83.76
2019-01-27T23:02:09.803Z,84.24
2019-01-27T23:05:11.872Z,83.52
2019-01-27T23:08:13.963Z,82.80
2019-01-27T23:11:17.714Z,83.00
2019-01-27T23:14:19.964Z,83.58
2019-01-27T23:17:21.951Z,82.86
2019-01-27T23:20:24.312Z,82.77
2019-01-27T23:23:26.394Z,82.40
2019-01-27T23:26:28.545Z,82.30
2019-01-27T23:29:31.087Z,82.91
2019-01-27T23:32:34.996Z,83.73
2019-01-27T23:35:40.041Z,83.56
2019-01-27T23:38:46.129Z,83.23
2019-01-27T23:41:48.152Z,83.29
2019-01-27T23:44:50.258Z,84.49
2019-01-27T23:47:53.453Z,84.78
2019-01-27T23:50:55.471Z,84.24
2019-01-27T23:53:57.708Z,84.94
2019-01-27T23:56:59.825Z,84.13
